Terminal Aerodrome Forecast
Issued by NWS Lake Charles, LA

Home | Current Version | Previous Version | Text Only | Print | Product List | Glossary On
Versions: 1 2 3 4 5 6 7 8 9 10 11 12 13 14 15
000
FTUS44 KLCH 290500
TAFARA
TAF
KARA 290533Z 2906/3006 15005KT P6SM SCT250
     FM290900 16005KT 4SM BR SKC
      TEMPO 2910/2914 1SM BR SCT005
     FM291500 22008KT P6SM SCT250
     FM300400 34008KT P6SM BKN050=

USA.gov is the U.S. government's official web portal to all federal, state and local government web resources and services.